Time;durP1;ratioP1;P1;durP2;ratioP2;P2;SDS_P1;SDS_P2;PMS_P1;PMS_P2;Temp;Humidity;BMP_temperature;BMP_pressure;BME280_temperature;BME280_humidity;BME280_pressure;Samples;Min_cycle;Max_cycle;Signal;HPM_P1;HPM_P2
2022/11/13 00:02:23;;;;;;;;;;;15.50;56.70;;;;;;5097174;28;19924;-69
2022/11/13 00:04:48;;;;;;;;;;;15.50;56.70;;;;;;5115547;28;19919;-69
2022/11/13 00:07:14;;;;;;;;;;;15.50;56.70;;;;;;5097044;28;20395;-69
2022/11/13 00:09:39;;;;;;;;;;;15.50;56.70;;;;;;5115654;28;19920;-70
2022/11/13 00:12:05;;;;;;;;;;;15.50;56.70;;;;;;5115302;28;20313;-69
2022/11/13 00:14:30;;;;;;;;;;;15.50;56.70;;;;;;5115490;28;20023;-69
2022/11/13 00:16:56;;;;;;;;;;;15.40;56.60;;;;;;5097119;28;19946;-69
2022/11/13 00:19:21;;;;;;;;;;;15.40;56.60;;;;;;5096919;28;19919;-71
2022/11/13 00:21:47;;;;;;;;;;;15.40;56.60;;;;;;5115033;28;19928;-71
2022/11/13 00:24:12;;;;;;;;;;;15.40;56.60;;;;;;5096734;28;19957;-69
2022/11/13 00:26:38;;;;;;;;;;;15.40;56.60;;;;;;5096831;28;19920;-69
2022/11/13 00:29:04;;;;;;;;;;;15.40;56.60;;;;;;5096683;28;19920;-70
2022/11/13 00:31:30;;;;;;;;;;;15.40;56.60;;;;;;5097075;28;19920;-70
2022/11/13 00:33:56;;;;;;;;;;;15.40;56.60;;;;;;5079732;28;20328;-69
2022/11/13 00:36:23;;;;;;;;;;;15.40;56.60;;;;;;5114805;28;19919;-71
2022/11/13 00:38:49;;;;;;;;;;;15.40;56.60;;;;;;5114456;28;20365;-69
2022/11/13 00:41:15;;;;;;;;;;;15.40;56.60;;;;;;5096455;28;19972;-69
2022/11/13 00:43:40;;;;;;;;;;;15.40;57.30;;;;;;5096705;28;19919;-71
2022/11/13 00:46:07;;;;;;;;;;;15.40;56.60;;;;;;5096031;28;20303;-71
2022/11/13 00:48:33;;;;;;;;;;;15.40;56.60;;;;;;5114260;28;20512;-69
2022/11/13 00:50:58;;;;;;;;;;;15.20;56.40;;;;;;5096239;28;19931;-70
2022/11/13 00:53:24;;;;;;;;;;;15.40;56.60;;;;;;5096213;28;19920;-69
2022/11/13 00:55:49;;;;;;;;;;;15.40;56.60;;;;;;5114410;28;19920;-69
2022/11/13 00:58:15;;;;;;;;;;;15.20;56.50;;;;;;5096018;28;19924;-71
2022/11/13 01:00:42;;;;;;;;;;;15.40;56.50;;;;;;5096441;28;19927;-69
2022/11/13 01:03:07;;;;;;;;;;;15.40;56.60;;;;;;5096417;28;19935;-69
2022/11/13 01:05:35;;;;;;;;;;;15.40;56.60;;;;;;5114288;28;20303;-69
2022/11/13 01:08:01;;;;;;;;;;;15.30;56.50;;;;;;5096331;28;19920;-71
2022/11/13 01:10:26;;;;;;;;;;;15.30;56.50;;;;;;5095849;28;20371;-71
2022/11/13 01:12:52;;;;;;;;;;;15.40;56.50;;;;;;5095865;28;19920;-69
2022/11/13 01:15:17;;;;;;;;;;;15.30;56.50;;;;;;5095913;28;19920;-69
2022/11/13 01:17:43;;;;;;;;;;;13.90;55.80;;;;;;5114160;28;20117;-69
2022/11/13 01:20:08;;;;;;;;;;;15.30;56.50;;;;;;5095720;28;19920;-69
2022/11/13 01:22:34;;;;;;;;;;;15.40;56.50;;;;;;5095926;28;19989;-69
2022/11/13 01:25:00;;;;;;;;;;;15.40;56.50;;;;;;5095866;28;19941;-69
2022/11/13 01:27:25;;;;;;;;;;;15.30;56.50;;;;;;5095647;28;20375;-69
2022/11/13 01:29:51;;;;;;;;;;;15.30;56.50;;;;;;5095538;28;19919;-69
2022/11/13 01:32:16;;;;;;;;;;;15.30;56.50;;;;;;5095474;28;20057;-69
2022/11/13 01:34:42;;;;;;;;;;;15.30;56.50;;;;;;5095798;28;19971;-69
2022/11/13 01:37:07;;;;;;;;;;;15.30;56.50;;;;;;5095338;28;19938;-69
2022/11/13 01:39:33;;;;;;;;;;;15.30;56.50;;;;;;5094942;28;19942;-69
2022/11/13 01:41:59;;;;;;;;;;;15.30;56.50;;;;;;5095302;28;20431;-72
2022/11/13 01:44:24;;;;;;;;;;;15.30;56.50;;;;;;5113524;28;20357;-69
2022/11/13 01:46:52;;;;;;;;;;;15.30;56.50;;;;;;5094826;28;19920;-69
2022/11/13 01:49:35;;;;;;;;;;;15.30;56.50;;;;;;5113567;28;19943;-71
2022/11/13 01:52:02;;;;;;;;;;;15.30;56.60;;;;;;5095160;28;19919;-69
2022/11/13 01:54:30;;;;;;;;;;;15.30;56.60;;;;;;5112597;28;19920;-69
2022/11/13 01:56:56;;;;;;;;;;;15.30;56.50;;;;;;5095029;28;19977;-69
2022/11/13 01:59:23;;;;;;;;;;;15.30;57.30;;;;;;5095137;28;19919;-69
2022/11/13 02:01:49;;;;;;;;;;;15.20;56.40;;;;;;5095220;28;19920;-69
2022/11/13 02:04:14;;;;;;;;;;;15.30;56.50;;;;;;5094994;28;20409;-69
2022/11/13 02:06:42;;;;;;;;;;;15.20;56.40;;;;;;5094902;28;20010;-69
2022/11/13 02:09:09;;;;;;;;;;;15.20;56.50;;;;;;5094227;28;19920;-68
2022/11/13 02:11:35;;;;;;;;;;;15.20;56.50;;;;;;5094929;28;20279;-69
2022/11/13 02:14:01;;;;;;;;;;;15.20;56.50;;;;;;5095134;28;20010;-71
2022/11/13 02:16:28;;;;;;;;;;;15.30;56.60;;;;;;5113028;28;20467;-70
2022/11/13 02:18:54;;;;;;;;;;;15.30;56.60;;;;;;5095087;28;19919;-69
2022/11/13 02:21:26;;;;;;;;;;;15.20;56.50;;;;;;5112926;28;20428;-69
2022/11/13 02:24:11;;;;;;;;;;;15.20;56.60;;;;;;5094868;28;19920;-69
2022/11/13 02:26:37;;;;;;;;;;;15.20;56.50;;;;;;5094640;28;19920;-69
2022/11/13 02:29:02;;;;;;;;;;;15.20;56.60;;;;;;5094717;28;20397;-69
2022/11/13 02:31:28;;;;;;;;;;;15.20;56.50;;;;;;5112914;28;19920;-69
2022/11/13 02:33:53;;;;;;;;;;;15.20;56.50;;;;;;5094621;28;19924;-69
2022/11/13 02:36:20;;;;;;;;;;;15.20;57.30;;;;;;5094799;28;19920;-69
2022/11/13 02:38:46;;;;;;;;;;;15.20;56.50;;;;;;5094291;28;19967;-69
2022/11/13 02:41:11;;;;;;;;;;;15.20;56.50;;;;;;5094503;28;20008;-71
2022/11/13 02:43:37;;;;;;;;;;;15.20;56.50;;;;;;5094405;28;19919;-69
2022/11/13 02:46:02;;;;;;;;;;;15.20;56.50;;;;;;5094482;28;19931;-71
2022/11/13 02:48:28;;;;;;;;;;;15.20;56.60;;;;;;5094454;28;19927;-69
2022/11/13 02:50:53;;;;;;;;;;;15.20;56.60;;;;;;5094394;28;19926;-69
2022/11/13 02:53:19;;;;;;;;;;;15.20;56.50;;;;;;5094591;28;19920;-69
2022/11/13 02:55:44;;;;;;;;;;;15.20;56.60;;;;;;5112643;28;20286;-69
2022/11/13 02:58:10;;;;;;;;;;;15.10;56.50;;;;;;5112628;28;20459;-69
2022/11/13 03:00:35;;;;;;;;;;;15.10;56.50;;;;;;5098853;28;20019;-68
2022/11/13 03:03:01;;;;;;;;;;;15.20;56.60;;;;;;5098666;28;20287;-70
2022/11/13 03:05:27;;;;;;;;;;;15.10;56.50;;;;;;5116669;28;20395;-69
2022/11/13 03:07:52;;;;;;;;;;;15.10;56.50;;;;;;5098493;28;19923;-68
2022/11/13 03:10:18;;;;;;;;;;;15.10;56.60;;;;;;5097912;28;20347;-69
2022/11/13 03:12:43;;;;;;;;;;;15.10;56.60;;;;;;5098130;28;20016;-69
2022/11/13 03:15:09;;;;;;;;;;;15.20;56.60;;;;;;5097831;28;19920;-69
2022/11/13 03:17:35;;;;;;;;;;;15.10;56.50;;;;;;5098162;28;19931;-68
2022/11/13 03:20:00;;;;;;;;;;;15.10;56.50;;;;;;5098389;28;20018;-69
2022/11/13 03:22:26;;;;;;;;;;;15.10;56.50;;;;;;5116207;28;19924;-69
2022/11/13 03:24:52;;;;;;;;;;;15.10;56.50;;;;;;5081323;28;19931;-71
2022/11/13 03:27:18;;;;;;;;;;;15.10;56.50;;;;;;5098282;28;19920;-71
2022/11/13 03:29:43;;;;;;;;;;;15.10;56.50;;;;;;5098222;28;19930;-69
2022/11/13 03:32:09;;;;;;;;;;;15.00;56.50;;;;;;5097864;28;19919;-71
2022/11/13 03:34:34;;;;;;;;;;;15.10;56.50;;;;;;5097769;28;19933;-68
2022/11/13 03:37:00;;;;;;;;;;;15.10;56.50;;;;;;5097718;28;19924;-70
2022/11/13 03:39:25;;;;;;;;;;;15.10;56.50;;;;;;5097353;28;19927;-69
2022/11/13 03:41:51;;;;;;;;;;;15.10;56.50;;;;;;5097652;28;19923;-69
2022/11/13 03:44:16;;;;;;;;;;;15.10;56.50;;;;;;5097550;28;19920;-68
2022/11/13 03:46:42;;;;;;;;;;;15.00;56.50;;;;;;5097791;28;19949;-71
2022/11/13 03:49:07;;;;;;;;;;;15.10;56.60;;;;;;5080576;28;19923;-69
2022/11/13 03:51:33;;;;;;;;;;;15.00;56.50;;;;;;5097854;28;19931;-69
2022/11/13 03:53:59;;;;;;;;;;;15.00;56.50;;;;;;5115676;28;20364;-70
2022/11/13 03:56:24;;;;;;;;;;;15.00;56.50;;;;;;5097662;28;20386;-70
2022/11/13 03:58:50;;;;;;;;;;;15.00;56.50;;;;;;5080466;28;19974;-69
2022/11/13 04:01:15;;;;;;;;;;;15.00;56.50;;;;;;5097166;28;19924;-71
2022/11/13 04:03:41;;;;;;;;;;;15.10;56.50;;;;;;5115724;28;19941;-70
2022/11/13 04:06:06;;;;;;;;;;;15.00;56.50;;;;;;5097517;28;20359;-68
2022/11/13 04:08:32;;;;;;;;;;;15.00;56.50;;;;;;5115418;28;20513;-71
2022/11/13 04:11:12;;;;;;;;;;;15.00;56.50;;;;;;5096521;28;20093;-68
2022/11/13 04:13:38;;;;;;;;;;;15.00;56.50;;;;;;5097080;28;19920;-68
2022/11/13 04:16:04;;;;;;;;;;;15.00;56.50;;;;;;5097007;28;19920;-69
2022/11/13 04:18:29;;;;;;;;;;;15.00;56.50;;;;;;5115154;28;19924;-71
2022/11/13 04:20:59;;;;;;;;;;;15.00;56.50;;;;;;5096861;28;19970;-68
2022/11/13 04:23:24;;;;;;;;;;;15.00;56.50;;;;;;5097055;28;19919;-69
2022/11/13 04:25:50;;;;;;;;;;;15.00;56.60;;;;;;5096814;28;20428;-69
2022/11/13 04:28:15;;;;;;;;;;;15.00;56.50;;;;;;5096820;28;19945;-69
2022/11/13 04:30:41;;;;;;;;;;;15.00;56.50;;;;;;5096988;28;19924;-69
2022/11/13 04:33:06;;;;;;;;;;;15.00;56.60;;;;;;5096766;28;20399;-69
2022/11/13 04:35:32;;;;;;;;;;;15.00;56.50;;;;;;5114991;28;19920;-69
2022/11/13 04:37:57;;;;;;;;;;;15.00;56.60;;;;;;5114648;28;20390;-70
2022/11/13 04:40:23;;;;;;;;;;;15.00;56.50;;;;;;5096752;28;20069;-68
2022/11/13 04:42:48;;;;;;;;;;;15.00;56.50;;;;;;5114793;28;19919;-70
2022/11/13 04:45:15;;;;;;;;;;;15.00;56.50;;;;;;5114756;28;19919;-69
2022/11/13 04:47:40;;;;;;;;;;;15.00;56.50;;;;;;5096777;28;20022;-68
2022/11/13 04:50:06;;;;;;;;;;;14.90;56.50;;;;;;5096368;28;20493;-70
2022/11/13 04:52:31;;;;;;;;;;;15.00;56.50;;;;;;5096633;28;19964;-69
2022/11/13 04:54:57;;;;;;;;;;;15.00;56.60;;;;;;5096232;28;20379;-70
2022/11/13 04:57:22;;;;;;;;;;;15.00;56.50;;;;;;5114585;28;19923;-69
2022/11/13 04:59:48;;;;;;;;;;;14.90;56.50;;;;;;5114640;28;19968;-71
2022/11/13 05:02:14;;;;;;;;;;;15.00;56.50;;;;;;5096049;28;20018;-71
2022/11/13 05:04:39;;;;;;;;;;;14.90;56.50;;;;;;5114400;28;19920;-68
2022/11/13 05:07:05;;;;;;;;;;;15.00;56.60;;;;;;5096276;28;19924;-68
2022/11/13 05:09:30;;;;;;;;;;;14.90;56.50;;;;;;5114301;28;19920;-70
2022/11/13 05:11:56;;;;;;;;;;;15.00;56.60;;;;;;5095145;28;20397;-69
2022/11/13 05:14:21;;;;;;;;;;;14.90;56.50;;;;;;5095314;28;19919;-68
2022/11/13 05:16:48;;;;;;;;;;;15.00;56.60;;;;;;5113820;28;20364;-69
2022/11/13 05:19:15;;;;;;;;;;;14.90;56.50;;;;;;5095776;28;20383;-70
2022/11/13 05:21:40;;;;;;;;;;;14.90;56.50;;;;;;5113102;28;19919;-69
2022/11/13 05:24:08;;;;;;;;;;;14.90;56.50;;;;;;5095796;28;20286;-71
2022/11/13 05:26:35;;;;;;;;;;;14.90;56.50;;;;;;5095908;28;20002;-70
2022/11/13 05:29:01;;;;;;;;;;;14.90;56.50;;;;;;5095655;28;19967;-68
2022/11/13 05:31:26;;;;;;;;;;;14.90;56.50;;;;;;5095589;28;19967;-69
2022/11/13 05:33:52;;;;;;;;;;;14.90;57.30;;;;;;5095912;28;19920;-68
2022/11/13 05:36:18;;;;;;;;;;;14.90;56.50;;;;;;5113778;28;19971;-69
2022/11/13 05:38:44;;;;;;;;;;;14.90;56.50;;;;;;5095182;28;19927;-69
2022/11/13 05:41:11;;;;;;;;;;;14.90;56.50;;;;;;5095269;28;19920;-69
2022/11/13 05:43:37;;;;;;;;;;;14.90;56.50;;;;;;5095588;28;20248;-69
2022/11/13 05:46:03;;;;;;;;;;;14.90;56.50;;;;;;5095316;28;19965;-68
2022/11/13 05:48:29;;;;;;;;;;;14.90;56.50;;;;;;5095468;28;19927;-68
2022/11/13 05:50:59;;;;;;;;;;;14.90;56.50;;;;;;5113464;28;19939;-69
2022/11/13 05:53:25;;;;;;;;;;;14.90;56.50;;;;;;5095388;28;20333;-69
2022/11/13 05:55:50;;;;;;;;;;;14.90;56.50;;;;;;5113360;28;19924;-70
2022/11/13 05:58:16;;;;;;;;;;;14.90;56.50;;;;;;5113193;28;19976;-71
2022/11/13 06:00:41;;;;;;;;;;;14.80;56.50;;;;;;5095084;28;20018;-71
2022/11/13 06:03:07;;;;;;;;;;;14.90;56.50;;;;;;5113321;28;19939;-71
2022/11/13 06:05:34;;;;;;;;;;;14.80;56.40;;;;;;5094722;28;19923;-69
2022/11/13 06:07:59;;;;;;;;;;;14.90;56.50;;;;;;5095174;28;19920;-68
2022/11/13 06:10:25;;;;;;;;;;;14.90;56.50;;;;;;5094804;28;19920;-69
2022/11/13 06:12:50;;;;;;;;;;;14.80;56.50;;;;;;5094848;28;20007;-68
2022/11/13 06:15:16;;;;;;;;;;;14.90;56.50;;;;;;5094768;28;19926;-69
2022/11/13 06:17:44;;;;;;;;;;;14.80;56.50;;;;;;5094734;28;19924;-69
2022/11/13 06:20:10;;;;;;;;;;;14.80;56.50;;;;;;5094738;28;19927;-68
2022/11/13 06:22:35;;;;;;;;;;;14.80;56.40;;;;;;5094662;28;19920;-69
2022/11/13 06:25:01;;;;;;;;;;;14.80;56.40;;;;;;5094681;28;20006;-68
2022/11/13 06:27:27;;;;;;;;;;;14.80;56.40;;;;;;5112904;28;19925;-71
2022/11/13 06:29:52;;;;;;;;;;;14.80;56.40;;;;;;5094616;28;19963;-68
2022/11/13 06:32:18;;;;;;;;;;;14.80;56.40;;;;;;5094437;28;19954;-68
2022/11/13 06:34:43;;;;;;;;;;;14.80;56.40;;;;;;5112806;28;19928;-68
2022/11/13 06:37:08;;;;;;;;;;;14.80;56.40;;;;;;5094807;28;19928;-68
2022/11/13 06:39:34;;;;;;;;;;;14.80;56.50;;;;;;5093971;28;20556;-68
2022/11/13 06:41:59;;;;;;;;;;;14.80;56.40;;;;;;5094421;28;19927;-68
2022/11/13 06:44:25;;;;;;;;;;;14.80;56.40;;;;;;5094410;28;19919;-71
2022/11/13 06:46:50;;;;;;;;;;;14.80;56.40;;;;;;5094510;28;19920;-71
2022/11/13 06:49:16;;;;;;;;;;;14.80;56.40;;;;;;5094524;28;19927;-72
2022/11/13 06:51:42;;;;;;;;;;;14.80;56.40;;;;;;5112700;28;19919;-71
2022/11/13 06:54:07;;;;;;;;;;;14.80;56.40;;;;;;5094461;28;19920;-69
2022/11/13 06:56:33;;;;;;;;;;;14.80;56.40;;;;;;5094606;28;19931;-69
2022/11/13 06:58:58;;;;;;;;;;;14.80;56.50;;;;;;5094198;28;19993;-71
2022/11/13 07:01:25;;;;;;;;;;;14.80;56.40;;;;;;5094321;28;19926;-69
2022/11/13 07:03:51;;;;;;;;;;;14.80;56.40;;;;;;5094657;28;19920;-71
2022/11/13 07:06:17;;;;;;;;;;;14.80;56.40;;;;;;5094253;28;20432;-69
2022/11/13 07:08:44;;;;;;;;;;;14.80;56.40;;;;;;5112479;28;19924;-71
2022/11/13 07:11:11;;;;;;;;;;;14.70;56.40;;;;;;5094265;28;19920;-69
2022/11/13 07:13:36;;;;;;;;;;;14.80;56.40;;;;;;5094177;28;20394;-69
2022/11/13 07:16:03;;;;;;;;;;;14.70;56.40;;;;;;5112444;28;19920;-69
2022/11/13 07:18:30;;;;;;;;;;;14.70;56.40;;;;;;5094111;28;19924;-71
2022/11/13 07:20:56;;;;;;;;;;;14.70;56.40;;;;;;5094421;28;20260;-69
2022/11/13 07:23:21;;;;;;;;;;;14.70;56.40;;;;;;5094002;28;19920;-69
2022/11/13 07:25:47;;;;;;;;;;;14.70;56.40;;;;;;5094101;28;19919;-69
2022/11/13 07:28:13;;;;;;;;;;;14.70;56.30;;;;;;5094061;28;19931;-71
2022/11/13 07:30:38;;;;;;;;;;;14.70;56.40;;;;;;5094127;28;19924;-72
2022/11/13 07:33:04;;;;;;;;;;;14.70;56.40;;;;;;5094003;28;19920;-69
2022/11/13 07:35:30;;;;;;;;;;;14.70;56.30;;;;;;5112293;28;19920;-71
2022/11/13 07:37:56;;;;;;;;;;;14.70;56.30;;;;;;5112076;28;20006;-71
2022/11/13 07:40:21;;;;;;;;;;;14.70;56.30;;;;;;5090212;28;19970;-69
2022/11/13 07:42:47;;;;;;;;;;;14.70;57.00;;;;;;5090469;28;19928;-72
2022/11/13 07:45:12;;;;;;;;;;;14.70;56.30;;;;;;5092185;28;19924;-69
2022/11/13 07:47:38;;;;;;;;;;;14.70;56.30;;;;;;5094218;28;19916;-68
2022/11/13 07:50:04;;;;;;;;;;;14.70;56.30;;;;;;5094496;28;19926;-69
2022/11/13 07:52:29;;;;;;;;;;;14.70;56.30;;;;;;5095518;28;20426;-69
2022/11/13 07:54:55;;;;;;;;;;;14.70;56.30;;;;;;5094403;28;19973;-69
2022/11/13 07:57:21;;;;;;;;;;;14.60;56.30;;;;;;5095214;28;19924;-69
2022/11/13 07:59:47;;;;;;;;;;;14.70;56.30;;;;;;5094243;28;20323;-69
2022/11/13 08:02:14;;;;;;;;;;;14.60;56.20;;;;;;5093901;28;19920;-69
2022/11/13 08:04:39;;;;;;;;;;;14.60;56.30;;;;;;5094014;28;19920;-69
2022/11/13 08:07:05;;;;;;;;;;;14.70;56.30;;;;;;5093854;28;19920;-69
2022/11/13 08:09:30;;;;;;;;;;;14.60;56.30;;;;;;5094133;28;19927;-68
2022/11/13 08:11:56;;;;;;;;;;;14.70;56.30;;;;;;5093876;28;19920;-69
2022/11/13 08:14:21;;;;;;;;;;;14.70;56.30;;;;;;5094904;28;19920;-71
2022/11/13 08:16:47;;;;;;;;;;;14.60;56.20;;;;;;5093613;28;19924;-70
2022/11/13 08:19:12;;;;;;;;;;;14.60;56.20;;;;;;5094236;28;19943;-71
2022/11/13 08:21:38;;;;;;;;;;;14.70;56.30;;;;;;5093948;28;20414;-69
2022/11/13 08:24:03;;;;;;;;;;;14.60;56.20;;;;;;5094750;28;19927;-70
2022/11/13 08:26:29;;;;;;;;;;;14.60;56.20;;;;;;5093799;28;19920;-68
2022/11/13 08:28:54;;;;;;;;;;;14.60;56.20;;;;;;5093466;28;20015;-71
2022/11/13 08:31:20;;;;;;;;;;;14.60;56.20;;;;;;5093335;28;19920;-68
2022/11/13 08:33:45;;;;;;;;;;;14.60;56.20;;;;;;5093247;28;20015;-69
2022/11/13 08:36:11;;;;;;;;;;;14.60;56.30;;;;;;5093623;28;19920;-71
2022/11/13 08:38:37;;;;;;;;;;;14.70;56.30;;;;;;5094366;28;20387;-69
2022/11/13 08:41:03;;;;;;;;;;;14.70;56.30;;;;;;5107323;28;19923;-69
2022/11/13 08:43:29;;;;;;;;;;;14.60;56.20;;;;;;5096726;28;19999;-71
2022/11/13 08:45:54;;;;;;;;;;;14.60;56.20;;;;;;5096425;28;20010;-68
2022/11/13 08:48:21;;;;;;;;;;;14.60;56.20;;;;;;5096522;28;19930;-68
2022/11/13 08:50:49;;;;;;;;;;;14.60;56.30;;;;;;5096697;28;20318;-68
2022/11/13 08:53:15;;;;;;;;;;;14.60;56.30;;;;;;5096375;28;19919;-71
2022/11/13 08:55:40;;;;;;;;;;;14.60;56.30;;;;;;5114624;28;19944;-68
2022/11/13 08:58:06;;;;;;;;;;;14.60;56.30;;;;;;5114414;28;19978;-68
2022/11/13 09:00:32;;;;;;;;;;;14.60;56.30;;;;;;5114476;28;19956;-70
2022/11/13 09:02:59;;;;;;;;;;;14.60;56.30;;;;;;5096004;28;19934;-68
2022/11/13 09:05:25;;;;;;;;;;;14.60;56.30;;;;;;5096313;28;19919;-68
2022/11/13 09:07:50;;;;;;;;;;;14.60;56.30;;;;;;5096046;28;20425;-69
2022/11/13 09:10:17;;;;;;;;;;;14.60;56.30;;;;;;5114204;28;19919;-69
2022/11/13 09:12:42;;;;;;;;;;;14.60;56.30;;;;;;5113609;28;19920;-68
2022/11/13 09:15:08;;;;;;;;;;;14.60;56.30;;;;;;5095979;28;19942;-70
2022/11/13 09:17:34;;;;;;;;;;;14.60;56.30;;;;;;5095779;28;20379;-68
2022/11/13 09:19:59;;;;;;;;;;;14.60;56.30;;;;;;5114195;28;19919;-70
2022/11/13 09:22:25;;;;;;;;;;;14.60;56.30;;;;;;5095743;28;19927;-70
2022/11/13 09:24:50;;;;;;;;;;;14.60;56.30;;;;;;5095308;28;19950;-70
2022/11/13 09:27:16;;;;;;;;;;;14.60;56.30;;;;;;5095934;28;19941;-69
2022/11/13 09:29:41;;;;;;;;;;;14.60;56.30;;;;;;5095940;28;20393;-70
2022/11/13 09:32:07;;;;;;;;;;;14.60;56.30;;;;;;5095795;28;19962;-69
2022/11/13 09:34:33;;;;;;;;;;;14.60;56.30;;;;;;5095564;28;20310;-69
2022/11/13 09:36:58;;;;;;;;;;;14.60;56.30;;;;;;5095616;28;19962;-69
2022/11/13 09:39:24;;;;;;;;;;;14.60;56.30;;;;;;5095468;28;19965;-71
2022/11/13 09:44:45;;;;;;;;;;;14.60;56.40;;;;;;5089958;28;19927;-71
2022/11/13 09:47:13;;;;;;;;;;;14.60;56.30;;;;;;5088805;28;20261;-68
2022/11/13 09:49:42;;;;;;;;;;;14.60;56.40;;;;;;5088527;28;20434;-68
2022/11/13 09:52:11;;;;;;;;;;;14.60;56.40;;;;;;5089929;28;20323;-68
2022/11/13 09:54:37;;;;;;;;;;;14.60;56.40;;;;;;5088764;28;19990;-68
2022/11/13 09:57:22;;;;;;;;;;;14.60;56.40;;;;;;5088415;28;19984;-69
2022/11/13 09:59:55;;;;;;;;;;;14.60;56.40;;;;;;5088491;28;20256;-68
2022/11/13 10:02:40;;;;;;;;;;;14.60;56.40;;;;;;5105087;28;20022;-71
2022/11/13 10:05:25;;;;;;;;;;;14.60;56.40;;;;;;5088421;28;19964;-68
2022/11/13 10:10:37;;;;;;;;;;;14.60;56.40;;;;;;5090055;28;19912;-68
2022/11/13 10:13:03;;;;;;;;;;;14.60;56.50;;;;;;5088556;28;19921;-70
2022/11/13 10:15:29;;;;;;;;;;;14.60;56.40;;;;;;5089885;28;20275;-68
2022/11/13 10:18:01;;;;;;;;;;;14.60;56.40;;;;;;5088497;28;19924;-68
2022/11/13 10:20:47;;;;;;;;;;;14.60;56.40;;;;;;5088383;28;20005;-68
2022/11/13 10:25:53;;;;;;;;;;;14.60;56.40;;;;;;5128203;27;1848255;-70
2022/11/13 10:28:22;;;;;;;;;;;14.60;56.50;;;;;;5174399;27;19919;-68
2022/11/13 10:30:48;;;;;;;;;;;14.60;56.40;;;;;;5174617;27;19943;-70
2022/11/13 10:33:15;;;;;;;;;;;14.60;56.50;;;;;;5192727;27;19934;-68
2022/11/13 10:35:46;;;;;;;;;;;14.60;56.50;;;;;;5174299;27;20373;-69
2022/11/13 10:38:18;;;;;;;;;;;14.70;56.50;;;;;;5174589;27;19922;-68
2022/11/13 10:40:44;;;;;;;;;;;14.60;56.40;;;;;;5174193;27;19983;-68
2022/11/13 10:43:14;;;;;;;;;;;14.60;56.40;;;;;;5174125;27;19926;-70
2022/11/13 10:45:41;;;;;;;;;;;14.60;56.40;;;;;;5192795;27;19966;-68
2022/11/13 10:48:18;;;;;;;;;;;14.60;56.50;;;;;;5174373;27;19926;-68
2022/11/13 10:50:51;;;;;;;;;;;14.60;56.40;;;;;;5174055;27;19951;-68
2022/11/13 10:53:17;;;;;;;;;;;14.60;56.40;;;;;;5192863;27;19962;-68
2022/11/13 10:55:44;;;;;;;;;;;14.60;56.50;;;;;;5174317;27;19918;-68
2022/11/13 10:58:12;;;;;;;;;;;14.60;56.50;;;;;;5192575;27;20005;-68
2022/11/13 11:00:40;;;;;;;;;;;14.60;56.50;;;;;;5173900;27;19927;-71
2022/11/13 11:03:07;;;;;;;;;;;14.70;56.60;;;;;;5173682;27;19926;-68
2022/11/13 11:05:34;;;;;;;;;;;14.60;56.50;;;;;;5173782;27;19922;-70
2022/11/13 11:07:59;;;;;;;;;;;14.60;56.60;;;;;;5173934;27;19925;-70
2022/11/13 11:10:29;;;;;;;;;;;14.60;56.50;;;;;;5173635;27;19918;-68
2022/11/13 11:12:56;;;;;;;;;;;14.70;56.60;;;;;;5173822;27;19990;-69
2022/11/13 11:15:25;;;;;;;;;;;14.70;56.60;;;;;;5173445;27;19969;-70
2022/11/13 11:17:52;;;;;;;;;;;14.70;56.60;;;;;;5173523;27;19925;-70
2022/11/13 11:20:32;;;;;;;;;;;14.60;56.50;;;;;;5173547;27;19953;-71
2022/11/13 11:23:03;;;;;;;;;;;14.70;56.60;;;;;;5173586;27;19919;-69
2022/11/13 11:25:33;;;;;;;;;;;14.60;56.60;;;;;;5169369;27;19923;-69
2022/11/13 11:28:01;;;;;;;;;;;14.60;56.60;;;;;;5169809;27;19926;-70
2022/11/13 11:30:30;;;;;;;;;;;14.70;56.60;;;;;;5169626;27;20378;-69
2022/11/13 11:33:15;;;;;;;;;;;14.70;56.60;;;;;;5169748;27;20005;-69
2022/11/13 11:38:31;;;;;;;;;;;14.70;56.70;;;;;;5089902;27;19913;-69
2022/11/13 11:41:04;;;;;;;;;;;14.70;56.70;;;;;;5088619;28;19982;-69
2022/11/13 11:43:38;;;;;;;;;;;14.70;56.70;;;;;;5088841;28;19954;-69
2022/11/13 11:46:04;;;;;;;;;;;14.60;56.70;;;;;;5088749;28;19924;-68
2022/11/13 11:48:30;;;;;;;;;;;14.60;56.70;;;;;;5088537;28;20011;-69
2022/11/13 11:51:02;;;;;;;;;;;14.70;56.80;;;;;;5088312;28;19920;-69
2022/11/13 11:59:02;;;;;;;;;;;14.60;56.70;;;;;;5089997;28;19913;-69
2022/11/13 12:01:48;;;;;;;;;;;14.60;56.80;;;;;;5088526;28;19956;-69
2022/11/13 12:10:00;;;;;;;;;;;14.70;56.90;;;;;;5110188;27;19941;-69
2022/11/13 12:15:09;;;;;;;;;;;14.70;56.90;;;;;;5128064;27;1850312;-69
2022/11/13 12:17:55;;;;;;;;;;;14.70;56.90;;;;;;5171881;27;19925;-69
2022/11/13 12:20:27;;;;;;;;;;;14.70;57.00;;;;;;5153382;27;19950;-69
2022/11/13 12:23:13;;;;;;;;;;;14.60;56.90;;;;;;5153668;27;20044;-70
2022/11/13 12:25:49;;;;;;;;;;;14.70;57.00;;;;;;5153172;27;19969;-69
2022/11/13 12:28:19;;;;;;;;;;;14.70;57.00;;;;;;5153723;27;20278;-69
2022/11/13 12:31:05;;;;;;;;;;;14.70;57.00;;;;;;5153263;27;19958;-69
2022/11/13 12:33:39;;;;;;;;;;;14.70;57.00;;;;;;5153163;27;19973;-70
2022/11/13 12:36:07;;;;;;;;;;;14.70;57.10;;;;;;5171865;27;19919;-70
2022/11/13 12:38:37;;;;;;;;;;;14.70;57.10;;;;;;5153573;27;19987;-70
2022/11/13 12:41:23;;;;;;;;;;;14.70;57.40;;;;;;5153418;27;20010;-69
2022/11/13 12:43:55;;;;;;;;;;;14.70;57.10;;;;;;5171590;27;19962;-70
2022/11/13 12:46:21;;;;;;;;;;;14.70;57.10;;;;;;5171793;27;20421;-69
2022/11/13 12:48:47;;;;;;;;;;;14.70;57.20;;;;;;5153320;27;19969;-68
2022/11/13 12:51:14;;;;;;;;;;;14.70;57.20;;;;;;5153006;27;19919;-70
2022/11/13 12:59:05;;;;;;;;;;;14.80;57.30;;;;;;5128010;27;1851992;-69
2022/11/13 13:01:33;;;;;;;;;;;14.70;57.20;;;;;;5174769;27;20326;-69
2022/11/13 13:04:18;;;;;;;;;;;14.70;57.30;;;;;;5173227;27;19925;-69
2022/11/13 13:06:53;;;;;;;;;;;14.70;57.30;;;;;;5153269;27;19926;-70
2022/11/13 13:09:28;;;;;;;;;;;14.70;57.30;;;;;;5153694;27;20287;-68
2022/11/13 13:12:14;;;;;;;;;;;14.70;57.30;;;;;;5153445;27;19923;-69
2022/11/13 13:14:51;;;;;;;;;;;14.70;57.30;;;;;;5153104;27;19982;-69
2022/11/13 13:17:18;;;;;;;;;;;14.70;57.30;;;;;;5153142;27;19923;-71
2022/11/13 13:19:43;;;;;;;;;;;14.70;57.40;;;;;;5172049;27;20529;-69
2022/11/13 13:22:11;;;;;;;;;;;14.70;57.40;;;;;;5152738;27;19926;-70
2022/11/13 13:24:37;;;;;;;;;;;14.70;57.30;;;;;;5152906;27;19971;-70
2022/11/13 13:27:22;;;;;;;;;;;14.80;57.40;;;;;;5153398;27;20003;-69
2022/11/13 13:29:48;;;;;;;;;;;14.70;57.40;;;;;;5153129;27;20415;-71
2022/11/13 13:32:33;;;;;;;;;;;14.60;57.40;;;;;;5171835;27;19926;-69
2022/11/13 13:40:28;;;;;;;;;;;14.70;57.40;;;;;;5090062;28;19913;-71
2022/11/13 13:43:05;;;;;;;;;;;14.70;57.50;;;;;;5088616;28;19927;-69
2022/11/13 13:45:51;;;;;;;;;;;14.70;57.50;;;;;;5088940;28;19920;-69
2022/11/13 13:48:19;;;;;;;;;;;14.70;57.50;;;;;;5088258;28;19920;-70
2022/11/13 13:50:45;;;;;;;;;;;14.70;57.50;;;;;;5088802;28;19965;-69
2022/11/13 13:53:13;;;;;;;;;;;14.70;57.50;;;;;;5088469;28;19920;-70
2022/11/13 13:55:44;;;;;;;;;;;14.70;57.50;;;;;;5088663;28;19927;-69
2022/11/13 13:58:13;;;;;;;;;;;14.70;57.60;;;;;;5088310;28;20327;-70
2022/11/13 14:00:39;;;;;;;;;;;14.70;57.50;;;;;;5088225;28;19978;-69
2022/11/13 14:03:15;;;;;;;;;;;14.70;57.50;;;;;;5088498;28;19968;-69
2022/11/13 14:05:40;;;;;;;;;;;14.70;57.60;;;;;;5089638;28;19924;-68
2022/11/13 14:08:15;;;;;;;;;;;14.70;57.50;;;;;;5089407;28;19930;-68
2022/11/13 14:10:40;;;;;;;;;;;14.70;57.50;;;;;;5088019;28;20364;-70
2022/11/13 14:13:10;;;;;;;;;;;14.70;57.50;;;;;;5088099;28;19973;-71
2022/11/13 14:15:36;;;;;;;;;;;14.70;57.60;;;;;;5087884;28;20398;-69
2022/11/13 14:18:17;;;;;;;;;;;14.70;57.60;;;;;;5089186;28;19974;-69
2022/11/13 14:20:59;;;;;;;;;;;14.70;57.60;;;;;;5087797;28;20454;-69
2022/11/13 14:26:04;;;;;;;;;;;14.70;57.60;;;;;;5110242;27;19912;-69
2022/11/13 14:28:31;;;;;;;;;;;14.70;57.60;;;;;;5108976;28;20002;-69
2022/11/13 14:30:59;;;;;;;;;;;14.70;57.60;;;;;;5109147;28;19920;-69
2022/11/13 14:33:29;;;;;;;;;;;14.70;57.60;;;;;;5108914;28;19950;-69
2022/11/13 14:35:55;;;;;;;;;;;14.70;57.60;;;;;;5109186;28;19920;-71
2022/11/13 14:38:22;;;;;;;;;;;14.70;57.70;;;;;;5143514;27;19927;-71
2022/11/13 14:40:48;;;;;;;;;;;14.70;57.60;;;;;;5108950;28;19927;-69
2022/11/13 14:43:20;;;;;;;;;;;14.70;57.70;;;;;;5108620;28;20327;-69
2022/11/13 14:45:54;;;;;;;;;;;14.80;57.70;;;;;;5108575;28;20359;-71
2022/11/13 14:48:24;;;;;;;;;;;14.70;57.70;;;;;;5108634;28;19954;-71
2022/11/13 14:50:52;;;;;;;;;;;14.70;57.70;;;;;;5108771;28;19963;-69
2022/11/13 14:53:26;;;;;;;;;;;14.70;57.70;;;;;;5108671;28;19927;-69
2022/11/13 14:55:52;;;;;;;;;;;14.70;57.80;;;;;;5108691;28;19927;-69
2022/11/13 14:58:26;;;;;;;;;;;14.70;57.80;;;;;;5108354;28;19920;-69